• Join FlightAware (Why Join?)
  • Login
  • US Flag 
07:37PM EDT


 

Airport Tracker/Info


-or-


 

Live Flight TrackerFlight Track Log ✈ LAN2531 ✈ 16-Aug-2013 ✈ KJFK - SPIM / LIM

Flight Track Log - Related Links

Times and Time Zones

All times are in EDT time to prevent confusion due to time zone crossing. See the LAN2531 flight status page for this flight to view local times or setup timezone preferences in your user account.

Time Position Orientation Groundspeed Altitude Reporting Facility
EDT Latitude Longitude Course Direction KTS MPH feet Rate Location/Type
12:18AM 40.6420 -73.7700 143° Southeast 105 121  Level FlightAware
12:18AM 40.6310 -73.7790 212° Southwest 175 201 900 Level FlightAware
12:19AM 40.6170 -73.7890 208° Southwest 172 198 600 1,800 Climbing FlightAware
12:19AM 40.6030 -73.8000 211° Southwest 185 213 1,200 1,380 Climbing FlightAware
12:19AM 40.5820 -73.8170 212° Southwest 222 255 1,700 1,560 Climbing FlightAware
12:20AM 40.5640 -73.8320 212° Southwest 233 268 2,400 2,100 Climbing FlightAware
12:20AM 40.5560 -73.8380 210° Southwest 242 278 2,700 1,800 Climbing FlightAware
12:20AM 40.5520 -73.8400 201° Southwest 249 287 2,800 1,200 Climbing FlightAware
12:20AM 40.5450 -73.8410 186° South 257 296 2,900 1,860 Climbing FlightAware
12:20AM 40.5310 -73.8407 179° South 264 304 3,300 2,220 Climbing FlightAware ADS-B
12:20AM 40.5255 -73.8385 163° South 267 307 3,500 2,640 Climbing FlightAware ADS-B
12:20AM 40.5209 -73.8357 155° Southeast 267 307 3,700 3,300 Climbing FlightAware ADS-B
12:20AM 40.5157 -73.8311 146° Southeast 267 307 4,000 2,640 Climbing FlightAware ADS-B
12:21AM 40.5128 -73.8276 137° Southeast 268 308 4,100 2,400 Climbing FlightAware ADS-B
12:21AM 40.5081 -73.8201 129° Southeast 268 308 4,400 3,000 Climbing FlightAware ADS-B
12:21AM 40.5043 -73.8116 120° Southeast 267 307 4,700 3,120 Climbing FlightAware ADS-B
12:21AM 40.4957 -73.7895 117° Southeast 269 310 5,500 3,180 Climbing FlightAware ADS-B
12:21AM 40.4865 -73.7673 119° Southeast 273 314 6,300 3,000 Climbing FlightAware ADS-B
12:22AM 40.4771 -73.7457 120° Southeast 275 316 7,000 2,880 Climbing FlightAware ADS-B
12:22AM 40.4700 -73.7289 119° Southeast 277 319 7,600 2,520 Climbing FlightAware ADS-B
12:22AM 40.4642 -73.7142 117° Southeast 284 327 7,900 2,160 Climbing FlightAware ADS-B
12:22AM 40.4549 -73.6893 116° Southeast 293 337 8,500 2,220 Climbing FlightAware ADS-B
12:22AM 40.4503 -73.6769 116° Southeast 296 341 8,800 2,700 Climbing FlightAware ADS-B
12:22AM 40.4482 -73.6721 120° Southeast 297 342 9,000 3,000 Climbing FlightAware ADS-B
12:22AM 40.4443 -73.6650 126° Southeast 298 343 9,200 2,220 Climbing FlightAware ADS-B
12:22AM 40.4414 -73.6608 132° Southeast 299 344 9,300 2,220 Climbing FlightAware ADS-B
12:23AM 40.4365 -73.6549 137° Southeast 299 344 9,500 2,460 Climbing FlightAware ADS-B
12:23AM 40.4289 -73.6467 141° Southeast 298 343 9,800 2,700 Climbing FlightAware ADS-B
12:23AM 40.4248 -73.6416 137° Southeast 300 345 10,000 1,740 Climbing FlightAware ADS-B
12:23AM 40.4058 -73.6136 132° Southeast 321 369 10,500 1,320 Climbing FlightAware ADS-B
12:24AM 40.3721 -73.5691 135° Southeast 354 407 11,100 1,200 Climbing FlightAware ADS-B
12:24AM 40.3336 -73.5202 136° Southeast 388 447 11,800 1,320 Climbing FlightAware ADS-B
12:24AM 40.3271 -73.5123 137° Southeast 392 451 11,900 1,620 Climbing FlightAware ADS-B
12:24AM 40.3185 -73.5032 141° Southeast 395 455 12,100 1,860 Climbing FlightAware ADS-B
12:24AM 40.3033 -73.4905 147° Southeast 399 459 12,400 2,160 Climbing FlightAware ADS-B
12:25AM 40.2874 -73.4807 155° Southeast 400 460 12,800 2,520 Climbing FlightAware ADS-B
12:25AM 40.2590 -73.4701 164° South 400 460 13,500 2,520 Climbing FlightAware ADS-B
12:25AM 40.2499 -73.4684 172° South 399 459 13,700 2,520 Climbing FlightAware ADS-B
12:25AM 40.2337 -73.4672 177° South 399 459 14,100 2,460 Climbing FlightAware ADS-B
12:25AM 40.2182 -73.4682 183° South 399 459 14,400 2,580 Climbing FlightAware ADS-B
12:25AM 40.2045 -73.4709 189° South 399 459 14,800 2,400 Climbing FlightAware ADS-B
12:25AM 40.1919 -73.4747 193° South 400 460 15,000 2,400 Climbing FlightAware ADS-B
12:26AM 40.1377 -73.4932 195° South 406 467 16,300 2,400 Climbing FlightAware ADS-B
12:26AM 40.1145 -73.5010 194° South 410 472 16,700 2,340 Climbing FlightAware ADS-B
12:26AM 40.0858 -73.5134 198° South 411 473 17,400 2,220 Climbing FlightAware ADS-B
12:27AM 40.0582 -73.5285 203° Southwest 415 478 17,900 2,100 Climbing FlightAware ADS-B
12:27AM 40.0227 -73.5533 208° Southwest 418 481 18,700 2,340 Climbing FlightAware ADS-B
12:28AM 39.9718 -73.5922 210° Southwest 419 482 19,900 2,220 Climbing FlightAware ADS-B
12:28AM 39.9212 -73.6314 211° Southwest 423 487 21,000 2,040 Climbing FlightAware ADS-B
12:29AM 39.8657 -73.6742 211° Southwest 430 495 22,100 1,860 Climbing FlightAware ADS-B
12:29AM 39.8125 -73.7148 210° Southwest 436 502 23,000 1,620 Climbing FlightAware ADS-B
12:30AM 39.7599 -73.7549 210° Southwest 442 509 23,800 1,680 Climbing FlightAware ADS-B
12:30AM 39.7062 -73.7955 210° Southwest 448 516 24,700 1,740 Climbing FlightAware ADS-B
12:31AM 39.6517 -73.8367 210° Southwest 452 520 25,600 1,800 Climbing FlightAware ADS-B
12:31AM 39.5956 -73.8791 210° Southwest 451 519 26,600 2,040 Climbing FlightAware ADS-B
12:32AM 39.5419 -73.9194 210° Southwest 447 514 27,700 2,580 Climbing FlightAware ADS-B
12:32AM 39.4884 -73.9598 210° Southwest 429 494 29,200 3,420 Climbing FlightAware ADS-B
12:33AM 39.4403 -73.9957 210° Southwest 395 455 31,100 3,420 Climbing FlightAware ADS-B
12:33AM 39.4214 -74.0112 212° Southwest 387 445 31,600 1,200 Climbing FlightAware ADS-B
12:33AM 39.3784 -74.0540 218° Southwest 390 449 32,000 360 Climbing FlightAware ADS-B
12:34AM 39.3364 -74.0997 220° Southwest 402 463 32,000  Level FlightAware ADS-B
12:34AM 39.2904 -74.1503 220° Southwest 410 472 32,000  Level FlightAware ADS-B
12:35AM 39.2440 -74.2008 220° Southwest 414 476 32,000  Level FlightAware ADS-B
12:35AM 39.1989 -74.2500 220° Southwest 414 476 32,000  Level FlightAware ADS-B
12:36AM 39.1547 -74.2978 220° Southwest 413 475 32,000  Level FlightAware ADS-B
12:36AM 39.1270 -74.3276 220° Southwest 414 476 32,000  Level FlightAware ADS-B
12:36AM 39.1168 -74.3368 215° Southwest 417 480 32,000  Level FlightAware ADS-B
12:37AM 39.0699 -74.3751 212° Southwest 417 480 32,000  Level FlightAware ADS-B
12:38AM 38.9923 -74.4358 211° Southwest 419 482 32,000  Level FlightAware ADS-B
12:38AM 38.9415 -74.4730 210° Southwest 419 482 32,000  Level FlightAware ADS-B
12:39AM 38.8899 -74.5101 209° Southwest 420 483 32,000  Level FlightAware ADS-B
12:39AM 38.8385 -74.5468 209° Southwest 420 483 32,000  Level FlightAware ADS-B
12:40AM 38.7871 -74.5836 209° Southwest 419 482 32,000  Level FlightAware ADS-B
12:40AM 38.7349 -74.6215 210° Southwest 420 483 32,000  Level FlightAware ADS-B
12:41AM 38.6840 -74.6582 209° Southwest 420 483 32,000  Level FlightAware ADS-B
12:41AM 38.6331 -74.6949 209° Southwest 420 483 32,000  Level FlightAware ADS-B
12:42AM 38.5817 -74.7321 210° Southwest 419 482 32,000  Level FlightAware ADS-B
12:42AM 38.5308 -74.7688 209° Southwest 420 483 32,000  Level FlightAware ADS-B
12:43AM 38.4788 -74.8060 209° Southwest 419 482 32,000  Level FlightAware ADS-B
12:43AM 38.4282 -74.8423 209° Southwest 419 482 32,000  Level FlightAware ADS-B
12:44AM 38.3515 -74.8973 209° Southwest 419 482 32,000  Level FlightAware ADS-B
12:44AM 38.3006 -74.9337 209° Southwest 420 483 32,000  Level FlightAware ADS-B
12:45AM 38.2496 -74.9702 209° Southwest 420 483 32,000  Level FlightAware ADS-B
12:45AM 38.1980 -75.0069 209° Southwest 421 484 32,000  Level FlightAware ADS-B
12:46AM 38.1458 -75.0438 209° Southwest 423 487 32,000  Level FlightAware ADS-B
12:47AM 38.0755 -75.0938 209° Southwest 422 486 32,000  Level FlightAware ADS-B
12:47AM 38.0050 -75.1438 209° Southwest 422 486 32,000  Level FlightAware ADS-B
12:48AM 37.9534 -75.1802 209° Southwest 421 484 32,000  Level FlightAware ADS-B
12:48AM 37.9019 -75.2166 209° Southwest 420 483 32,000  Level FlightAware ADS-B
12:49AM 37.8509 -75.2525 209° Southwest 420 483 32,000  Level FlightAware ADS-B
12:49AM 37.7997 -75.2885 209° Southwest 419 482 32,000  Level FlightAware ADS-B
12:50AM 37.7488 -75.3243 209° Southwest 419 482 32,000  Level FlightAware ADS-B
12:50AM 37.6971 -75.3606 209° Southwest 420 483 32,000  Level FlightAware ADS-B
12:51AM 37.6450 -75.3970 209° Southwest 420 483 32,000  Level FlightAware ADS-B
12:51AM 37.5840 -75.4400 209° Southwest 419 482 32,000  Level FlightAware
12:52AM 37.5242 -75.4815 209° Southwest 420 483 32,000  Level FlightAware ADS-B
12:53AM 37.4721 -75.5176 209° Southwest 420 483 32,000  Level FlightAware ADS-B
12:53AM 37.4165 -75.5563 209° Southwest 421 484 32,000  Level FlightAware ADS-B
12:54AM 37.3645 -75.5924 209° Southwest 421 484 32,000  Level FlightAware ADS-B
12:54AM 37.3122 -75.6286 209° Southwest 422 486 32,000  Level FlightAware ADS-B
12:55AM 37.2601 -75.6647 209° Southwest 422 486 32,000  Level FlightAware ADS-B
12:55AM 37.2083 -75.7004 209° Southwest 422 486 32,000  Level FlightAware ADS-B
12:56AM 37.1554 -75.7368 209° Southwest 423 487 32,000  Level FlightAware ADS-B
12:56AM 37.1032 -75.7728 209° Southwest 423 487 32,000  Level FlightAware ADS-B
12:57AM 37.0510 -75.8087 209° Southwest 423 487 32,000  Level FlightAware ADS-B
12:57AM 36.9987 -75.8446 209° Southwest 423 487 32,000  Level FlightAware ADS-B
12:58AM 36.9457 -75.8809 209° Southwest 423 487 32,000  Level FlightAware ADS-B
12:58AM 36.8720 -75.9312 209° Southwest 423 487 32,000  Level FlightAware ADS-B
12:59AM 36.8180 -75.9681 209° Southwest 423 487 32,000  Level FlightAware ADS-B
01:00AM 36.6930 -76.0530 209° Southwest 422 486 32,000  Level FlightAware
01:01AM 36.6420 -76.0880 209° Southwest 422 486 32,000  Level FlightAware
01:02AM 36.5580 -76.1450 209° Southwest 422 486 32,000  Level FlightAware
01:02AM 36.4970 -76.1860 208° Southwest 422 486 32,000  Level FlightAware
01:03AM 36.4350 -76.2280 209° Southwest 422 486 32,000  Level FlightAware
01:03AM 36.3750 -76.2680 208° Southwest 421 484 32,000  Level FlightAware
01:04AM 36.3150 -76.3080 208° Southwest 421 484 32,000  Level FlightAware
01:04AM 36.2570 -76.3480 209° Southwest 421 484 32,000  Level FlightAware
01:05AM 36.1950 -76.3890 208° Southwest 420 483 32,000  Level FlightAware
01:06AM 36.1360 -76.4290 209° Southwest 418 481 32,000  Level FlightAware
01:06AM 36.0570 -76.4810 208° Southwest 417 480 32,000  Level FlightAware
01:07AM 36.0060 -76.5150 208° Southwest 417 480 32,000  Level FlightAware
01:08AM 35.9390 -76.5590 208° Southwest 417 480 32,000  Level FlightAware
01:08AM 35.8920 -76.5900 208° Southwest 417 480 32,000  Level FlightAware
01:09AM 35.8100 -76.6460 209° Southwest 417 480 32,000  Level FlightAware
01:09AM 35.7530 -76.6830 208° Southwest 417 480 32,000  Level FlightAware
01:10AM 35.7010 -76.7170 208° Southwest 417 480 32,000  Level FlightAware
01:11AM 35.6520 -76.7490 208° Southwest 417 480 32,000  Level FlightAware
01:11AM 35.6000 -76.7830 208° Southwest 417 480 32,000  Level FlightAware
01:12AM 35.5480 -76.8170 208° Southwest 417 480 32,000  Level FlightAware
01:12AM 35.4960 -76.8510 208° Southwest 417 480 32,000  Level FlightAware
01:13AM 35.4430 -76.8850 208° Southwest 417 480 32,000  Level FlightAware
01:14AM 35.3900 -76.9200 208° Southwest 417 480 32,000  Level FlightAware
01:14AM 35.3380 -76.9540 208° Southwest 417 480 32,000  Level FlightAware
01:15AM 35.2860 -76.9880 208° Southwest 417 480 32,000  Level FlightAware
01:15AM 35.2330 -77.0220 208° Southwest 417 480 32,000  Level FlightAware
01:16AM 35.1800 -77.0570 208° Southwest 417 480 32,000  Level FlightAware
01:17AM 35.1280 -77.0910 208° Southwest 417 480 32,000  Level FlightAware
01:17AM 35.0740 -77.1260 208° Southwest 417 480 32,000  Level FlightAware
01:18AM 35.0220 -77.1590 207° Southwest 417 480 32,000  Level FlightAware
01:18AM 34.9700 -77.1930 208° Southwest 417 480 32,000  Level FlightAware
01:19AM 34.7494 -77.3411 208° Southwest 414 476 32,000  Level Washington Center
01:20AM 34.6525 -77.4175 213° Southwest 414 476 32,000  Level Washington Center
01:21AM 34.5653 -77.5089 221° Southwest 414 476 32,000  Level Washington Center
01:27AM 34.0260 -78.0190 221° Southwest 427 491 32,000  Level FlightAware
01:28AM 33.9760 -78.0780 224° Southwest 428 493 32,000  Level FlightAware
01:28AM 33.9300 -78.1320 224° Southwest 429 494 32,000  Level FlightAware
01:29AM 33.8680 -78.2060 225° Southwest 431 496 32,000  Level FlightAware
01:30AM 33.8220 -78.2670 228° Southwest 434 499 32,000  Level FlightAware
01:30AM 33.7730 -78.3290 226° Southwest 434 499 32,000  Level FlightAware
01:31AM 33.7200 -78.3940 226° Southwest 435 501 32,000  Level FlightAware
01:31AM 33.6590 -78.4630 223° Southwest 438 504 32,000  Level FlightAware
01:32AM 33.5980 -78.5330 224° Southwest 439 505 32,000  Level FlightAware
01:33AM 33.5510 -78.5870 224° Southwest 439 505 32,000  Level FlightAware
01:33AM 33.4870 -78.6440 217° Southwest 439 505 32,000  Level FlightAware
01:34AM 33.4280 -78.6900 213° Southwest 439 505 32,000  Level FlightAware
01:34AM 33.3670 -78.7320 210° Southwest 440 506 32,000  Level FlightAware
01:35AM 33.3030 -78.7690 206° Southwest 439 505 32,000  Level FlightAware
01:36AM 33.2320 -78.8120 207° Southwest 438 504 32,000  Level FlightAware
01:36AM 33.1660 -78.8450 203° Southwest 439 505 32,000  Level FlightAware
01:37AM 33.0970 -78.8700 197° South 438 504 32,000  Level FlightAware
01:37AM 33.0360 -78.8870 193° South 438 504 32,000  Level FlightAware
01:38AM 32.9730 -78.9010 191° South 438 504 32,000  Level FlightAware
01:39AM 32.8970 -78.9160 189° South 440 506 32,000  Level FlightAware
01:39AM 32.8210 -78.9240 185° South 440 506 32,000  Level FlightAware
01:40AM 32.7580 -78.9260 182° South 443 510 32,000  Level FlightAware
01:40AM 32.6850 -78.9270 181° South 444 511 32,000  Level FlightAware
01:41AM 32.6160 -78.9290 181° South 444 511 32,000  Level FlightAware
01:42AM 32.5240 -78.9300 181° South 445 512 32,000  Level FlightAware
01:42AM 32.4500 -78.9310 181° South 445 512 32,000  Level FlightAware
01:43AM 32.3860 -78.9330 182° South 445 512 32,000  Level FlightAware
01:43AM 32.3120 -78.9340 181° South 445 512 32,000  Level FlightAware
01:44AM 32.2410 -78.9350 181° South 446 513 32,000  Level FlightAware
01:45AM 32.1650 -78.9360 181° South 447 514 32,000  Level FlightAware
01:45AM 32.0940 -78.9370 181° South 447 514 32,000  Level FlightAware
01:46AM 31.9780 -78.9390 181° South 448 516 32,000  Level FlightAware
01:47AM 31.9780 -78.9400 270° West 449 517 32,000  Level FlightAware
01:47AM 31.9120 -78.9410 181° South 449 517 32,000  Level FlightAware
01:48AM 31.8470 -78.9430 181° South 449 517 32,000  Level FlightAware
01:49AM 31.7820 -78.9440 181° South 449 517 32,000  Level FlightAware
01:49AM 31.7180 -78.9450 181° South 449 517 32,000  Level FlightAware
01:50AM 31.6540 -78.9470 182° South 449 517 32,000  Level FlightAware
01:50AM 31.5910 -78.9480 181° South 449 517 32,000  Level FlightAware
01:51AM 31.5270 -78.9490 181° South 449 517 32,000  Level FlightAware
01:52AM 31.4640 -78.9500 181° South 449 517 32,000  Level FlightAware
01:52AM 31.3990 -78.9520 182° South 449 517 32,000  Level FlightAware
01:53AM 31.3350 -78.9530 181° South 449 517 32,000  Level FlightAware
01:53AM 31.2710 -78.9540 181° South 449 517 32,000  Level FlightAware
01:54AM 31.2080 -78.9560 182° South 449 517 32,000  Level FlightAware
01:55AM 31.1440 -78.9570 181° South 449 517 32,000  Level FlightAware
01:55AM 31.0810 -78.9580 181° South 449 517 32,000  Level FlightAware
01:56AM 31.0170 -78.9600 182° South 449 517 32,000  Level FlightAware
01:57AM 30.6442 -79.0294 182° South 460 529 32,000  Level Jacksonville Center
01:58AM 30.5267 -79.0778 200° South 455 524 32,000  Level Jacksonville Center
01:58AM 30.4608 -79.0956 193° South 455 524 32,000  Level Miami Center
01:59AM 30.3394 -79.1219 191° South 435 501 32,000  Level Miami Center
02:00AM 30.1997 -79.1358 185° South 458 527 32,000 -60 Level Miami Center
02:01AM 30.0786 -79.1403 182° South 458 527 31,900  Descending Miami Center
02:02AM 29.9681 -79.1453 182° South 458 527 32,000  Climbing Miami Center
02:03AM 29.8408 -79.1425 179° South 458 527 32,000  Level Miami Center
02:04AM 29.7139 -79.1397 179° South 458 527 32,000  Level Miami Center
02:05AM 29.5867 -79.1372 179° South 456 525 32,000  Level Miami Center
02:11AM 28.8520 -79.1250 179° South 456 525 32,000  Level FlightAware
02:12AM 28.7740 -79.1240 179° South 457 526 32,000  Level FlightAware
02:12AM 28.7120 -79.1230 179° South 458 527 32,000  Level FlightAware
02:13AM 28.6310 -79.1220 179° South 459 528 32,000  Level FlightAware
02:13AM 28.5540 -79.1210 179° South 459 528 32,000  Level FlightAware
02:14AM 28.4860 -79.1210 180° South 460 529 32,000  Level FlightAware
02:14AM 28.4090 -79.1200 179° South 458 527 32,000  Level FlightAware
02:15AM 28.3220 -79.1190 179° South 450 518 32,000  Level FlightAware
02:16AM 28.2580 -79.1180 179° South 450 518 32,000  Level FlightAware
02:16AM 28.1720 -79.1170 179° South 458 527 32,000  Level FlightAware
02:17AM 28.0960 -79.1160 179° South 458 527 32,000  Level FlightAware
02:18AM 28.0210 -79.1150 179° South 457 526 32,000  Level FlightAware
02:18AM 27.9490 -79.1140 179° South 457 526 32,000  Level FlightAware
02:19AM 27.8830 -79.1130 179° South 450 518 32,000  Level FlightAware
02:19AM 27.8060 -79.1130 180° South 450 518 32,000  Level FlightAware
02:20AM 27.7340 -79.1120 179° South 450 518 32,000  Level FlightAware
02:20AM 27.6490 -79.1110 179° South 459 528 32,000  Level FlightAware
02:21AM 27.5730 -79.1100 179° South 460 529 32,000  Level FlightAware
02:22AM 27.5010 -79.1090 179° South 461 531 32,000  Level FlightAware
02:22AM 27.4260 -79.1080 179° South 462 532 32,000  Level FlightAware
02:23AM 27.3560 -79.1070 179° South 463 533 32,000  Level FlightAware
02:23AM 27.2710 -79.1060 179° South 463 533 32,000  Level FlightAware
02:24AM 27.1940 -79.1060 180° South 464 534 32,000  Level FlightAware
02:24AM 27.1290 -79.1050 179° South 465 535 32,000  Level FlightAware
02:25AM 27.0510 -79.1040 179° South 466 536 32,000  Level FlightAware
02:26AM 26.9730 -79.1030 179° South 468 539 32,000  Level FlightAware
02:26AM 26.8910 -79.1020 179° South 468 539 32,000  Level FlightAware
02:27AM 26.8220 -79.1010 179° South 469 540 32,000  Level FlightAware
02:27AM 26.7540 -79.1010 180° South 469 540 32,000  Level FlightAware
02:28AM 26.6670 -79.0990 179° South 469 540 32,000  Level FlightAware
02:29AM 26.6010 -79.0990 180° South 470 541 32,000  Level FlightAware
02:29AM 26.5260 -79.0980 179° South 470 541 32,000  Level FlightAware
02:30AM 26.4490 -79.0970 179° South 463 533 32,000  Level FlightAware
02:30AM 26.3650 -79.0960 179° South 470 541 32,000  Level FlightAware
02:31AM 26.2960 -79.0950 179° South 470 541 32,000  Level FlightAware
02:31AM 26.2210 -79.0940 179° South 470 541 32,000  Level FlightAware
02:32AM 26.1330 -79.0930 179° South 470 541 32,000  Level FlightAware
02:33AM 26.0670 -79.0930 180° South 469 540 32,000  Level FlightAware
02:33AM 25.9910 -79.0920 179° South 469 540 32,000  Level FlightAware
02:34AM 25.9150 -79.0910 179° South 468 539 32,000  Level FlightAware
02:34AM 25.8280 -79.0900 179° South 467 537 32,000 720 Level FlightAware
02:35AM 25.7420 -79.0910 181° South 465 535 33,000 1,260 Climbing FlightAware
02:36AM 25.6650 -79.0920 181° South 468 539 33,600 1,020 Climbing FlightAware
02:36AM 25.5900 -79.0930 181° South 463 533 34,200 1,020 Climbing FlightAware
02:37AM 25.5130 -79.0940 181° South 470 541 34,800 660 Climbing FlightAware
02:37AM 25.4380 -79.0950 181° South 463 533 35,000 120 Climbing FlightAware
02:38AM 25.3610 -79.0960 181° South 463 533 35,000  Level FlightAware
02:39AM 25.2860 -79.0970 181° South 470 541 35,000  Level FlightAware
02:39AM 25.2070 -79.0980 181° South 469 540 35,000  Level FlightAware
02:40AM 25.1340 -79.0980 180° South 467 537 35,000  Level FlightAware
02:40AM 25.0560 -79.0990 181° South 465 535 35,000  Level FlightAware
02:41AM 24.9710 -79.1000 181° South 464 534 35,000  Level FlightAware
02:42AM 24.9060 -79.1010 181° South 463 533 35,000  Level FlightAware
02:42AM 24.8310 -79.1020 181° South 463 533 35,000  Level FlightAware
02:43AM 24.7410 -79.1030 181° South 454 522 35,000  Level FlightAware
02:43AM 24.6640 -79.1040 181° South 462 532 35,000  Level FlightAware
02:44AM 24.5930 -79.1050 181° South 463 533 35,000  Level FlightAware
02:45AM 24.5280 -79.1050 180° South 463 533 35,000  Level FlightAware
02:45AM 24.4330 -79.1070 181° South 453 521 35,000  Level FlightAware
02:46AM 24.3700 -79.1080 181° South 453 521 35,000  Level FlightAware
02:46AM 24.2950 -79.1090 181° South 453 521 35,000  Level FlightAware
02:47AM 24.2200 -79.1100 181° South 452 520 35,000  Level FlightAware
02:48AM 24.1350 -79.1110 181° South 452 520 35,000  Level FlightAware
02:48AM 24.0700 -79.1110 180° South 452 520 35,000  Level FlightAware
02:49AM 23.9730 -79.1130 181° South 452 520 35,000  Level FlightAware
02:49AM 23.8990 -79.1130 180° South 452 520 35,000  Level FlightAware
02:50AM 23.8370 -79.1140 181° South 452 520 35,000  Level FlightAware
02:51AM 23.7590 -79.1150 181° South 452 520 35,000  Level FlightAware
02:51AM 23.6950 -79.1150 180° South 452 520 35,000  Level FlightAware
02:52AM 23.6300 -79.1150 180° South 452 520 35,000  Level FlightAware
02:53AM 23.5090 -79.1170 181° South 452 520 35,000  Level FlightAware
02:53AM 23.4450 -79.1170 180° South 452 520 35,000  Level FlightAware
02:54AM 23.3810 -79.1170 180° South 452 520 35,000  Level FlightAware
02:54AM 23.3170 -79.1170 180° South 452 520 35,000  Level FlightAware
02:55AM 23.2530 -79.1170 180° South 452 520 35,000  Level FlightAware
02:56AM 23.1890 -79.1170 180° South 452 520 35,000  Level FlightAware
02:56AM 23.1230 -79.1170 180° South 452 520 35,000  Level FlightAware
02:57AM 23.0800 -79.1170 180° South 452 520 35,000  Level FlightAware
02:57AM 23.0160 -79.1170 180° South 452 520 35,000  Level FlightAware
02:58AM 22.9520 -79.1170 180° South 452 520 35,000  Level FlightAware
02:58AM 22.8880 -79.1170 180° South 452 520 35,000  Level FlightAware
02:59AM 22.8220 -79.1170 180° South 452 520 35,000  Level FlightAware
03:00AM 22.7580 -79.1170 180° South 452 520 35,000  Level FlightAware
03:00AM 22.6940 -79.1170 180° South 452 520 35,000  Level FlightAware
03:01AM 22.6270 -79.1170 180° South 452 520 35,000  Level FlightAware
03:01AM 22.5630 -79.1170 180° South 452 520 35,000  Level FlightAware
03:02AM 22.4990 -79.1170 180° South 452 520 35,000  Level FlightAware
03:05AM 22.1933 -79.1273 182° South  Level FlightAware Approximate
03:06AM 22.0677 -79.1315 182° South  Level FlightAware Approximate
03:07AM 21.9420 -79.1357 182° South  Level FlightAware Approximate
03:08AM 21.8164 -79.1400 182° South  Level FlightAware Approximate
03:09AM 21.6908 -79.1442 182° South  Level FlightAware Approximate
03:10AM 21.5651 -79.1484 182° South  Level FlightAware Approximate
03:11AM 21.4395 -79.1525 182° South  Level FlightAware Approximate
03:12AM 21.3139 -79.1567 182° South  Level FlightAware Approximate
03:13AM 21.1883 -79.1609 182° South  Level FlightAware Approximate
03:14AM 21.0626 -79.1650 182° South  Level FlightAware Approximate
03:15AM 20.9370 -79.1692 182° South  Level FlightAware Approximate
03:16AM 20.8114 -79.1734 182° South  Level FlightAware Approximate
03:17AM 20.6857 -79.1775 182° South  Level FlightAware Approximate
03:18AM 20.5601 -79.1816 182° South  Level FlightAware Approximate
03:19AM 20.4345 -79.1858 182° South  Level FlightAware Approximate
03:20AM 20.3088 -79.1899 182° South  Level FlightAware Approximate
03:21AM 20.1832 -79.1940 182° South  Level FlightAware Approximate
03:22AM 20.0576 -79.1981 182° South  Level FlightAware Approximate
03:23AM 19.9319 -79.2023 182° South  Level FlightAware Approximate
03:24AM 19.8063 -79.2066 182° South  Level FlightAware Approximate
03:25AM 19.6807 -79.2109 182° South  Level FlightAware Approximate
03:26AM 19.5550 -79.2152 182° South  Level FlightAware Approximate
03:27AM 19.4294 -79.2195 182° South  Level FlightAware Approximate
03:28AM 19.3038 -79.2238 182° South  Level FlightAware Approximate
03:29AM 19.1782 -79.2281 182° South  Level FlightAware Approximate
03:30AM 19.0525 -79.2323 182° South  Level FlightAware Approximate
03:31AM 18.9269 -79.2366 182° South  Level FlightAware Approximate
03:32AM 18.8013 -79.2408 182° South  Level FlightAware Approximate
03:33AM 18.6756 -79.2451 182° South  Level FlightAware Approximate
03:34AM 18.5500 -79.2493 182° South  Level FlightAware Approximate
03:35AM 18.4244 -79.2535 182° South  Level FlightAware Approximate
03:36AM 18.2987 -79.2578 182° South  Level FlightAware Approximate
03:37AM 18.1731 -79.2620 182° South  Level FlightAware Approximate
03:38AM 18.0475 -79.2662 182° South  Level FlightAware Approximate
03:39AM 17.9219 -79.2704 182° South  Level FlightAware Approximate
03:40AM 17.7962 -79.2746 182° South  Level FlightAware Approximate
03:41AM 17.6706 -79.2788 182° South  Level FlightAware Approximate
03:42AM 17.5450 -79.2830 182° South  Level FlightAware Approximate
03:43AM 17.4193 -79.2872 182° South  Level FlightAware Approximate
03:44AM 17.2937 -79.2913 182° South  Level FlightAware Approximate
03:45AM 17.1681 -79.2955 182° South  Level FlightAware Approximate
03:46AM 17.0424 -79.2997 182° South  Level FlightAware Approximate
03:47AM 16.9168 -79.3038 182° South  Level FlightAware Approximate
03:48AM 16.7912 -79.3080 182° South  Level FlightAware Approximate
03:49AM 16.6656 -79.3121 182° South  Level FlightAware Approximate
03:50AM 16.5399 -79.3163 182° South  Level FlightAware Approximate
03:51AM 16.4143 -79.3204 182° South  Level FlightAware Approximate
03:52AM 16.2887 -79.3246 182° South  Level FlightAware Approximate
03:53AM 16.1630 -79.3287 182° South  Level FlightAware Approximate
03:54AM 16.0374 -79.3328 182° South  Level FlightAware Approximate
03:55AM 15.9118 -79.3369 182° South  Level FlightAware Approximate
03:56AM 15.7861 -79.3410 182° South  Level FlightAware Approximate
03:57AM 15.6605 -79.3452 182° South  Level FlightAware Approximate
03:58AM 15.5349 -79.3493 182° South  Level FlightAware Approximate
03:59AM 15.4093 -79.3533 182° South  Level FlightAware Approximate
04:00AM 15.2836 -79.3574 182° South  Level FlightAware Approximate
04:01AM 15.1580 -79.3615 182° South  Level FlightAware Approximate
04:02AM 15.0324 -79.3656 182° South  Level FlightAware Approximate
04:03AM 14.9068 -79.3684 181° South  Level FlightAware Approximate
04:04AM 14.7811 -79.3708 181° South  Level FlightAware Approximate
04:05AM 14.6554 -79.3732 181° South  Level FlightAware Approximate
04:06AM 14.5298 -79.3755 181° South  Level FlightAware Approximate
04:07AM 14.4041 -79.3779 181° South  Level FlightAware Approximate
04:08AM 14.2784 -79.3803 181° South  Level FlightAware Approximate
04:09AM 14.1528 -79.3827 181° South  Level FlightAware Approximate
04:10AM 14.0271 -79.3867 182° South  Level FlightAware Approximate
04:11AM 13.9015 -79.3913 182° South  Level FlightAware Approximate
04:12AM 13.7759 -79.3960 182° South  Level FlightAware Approximate
04:13AM 13.6503 -79.4006 182° South  Level FlightAware Approximate
04:14AM 13.5247 -79.4053 182° South  Level FlightAware Approximate
04:15AM 13.3991 -79.4099 182° South  Level FlightAware Approximate
04:16AM 13.2735 -79.4146 182° South  Level FlightAware Approximate
04:17AM 13.1478 -79.4186 182° South  Level FlightAware Approximate
04:18AM 13.0222 -79.4221 182° South  Level FlightAware Approximate
04:18AM 12.2880 -79.4240 182° South 452 520 35,000  Level FlightAware
04:19AM 12.8966 -79.4256 182° South  Level FlightAware Approximate
04:19AM 12.2140 -79.4260 182° South 452 520 35,000  Level FlightAware
04:19AM 12.1390 -79.4290 182° South 452 520 35,000  Level FlightAware
04:20AM 12.0630 -79.4320 182° South 451 519 35,000  Level FlightAware
04:21AM 11.9860 -79.4340 181° South 451 519 35,000  Level FlightAware
04:21AM 11.9030 -79.4370 182° South 451 519 35,000  Level FlightAware
04:22AM 11.8290 -79.4400 182° South 451 519 35,000  Level FlightAware
04:22AM 11.7540 -79.4420 181° South 451 519 35,000  Level FlightAware
04:23AM 11.6790 -79.4450 182° South 450 518 35,000  Level FlightAware
04:24AM 11.6050 -79.4460 181° South 449 517 35,000  Level FlightAware
04:24AM 11.5310 -79.4380 174° South 456 525 35,000  Level FlightAware
04:25AM 11.4580 -79.4270 172° South 455 524 35,000  Level FlightAware
04:25AM 11.3850 -79.4170 172° South 454 522 35,000  Level FlightAware
04:26AM 11.3110 -79.4060 172° South 454 522 35,000  Level FlightAware
04:26AM 11.2390 -79.3960 172° South 452 520 35,000  Level FlightAware
04:27AM 11.1660 -79.3860 172° South 452 520 35,000  Level FlightAware
04:28AM 11.0910 -79.3840 179° South 453 521 35,000  Level FlightAware
04:28AM 11.0170 -79.3850 181° South 453 521 35,000  Level FlightAware
04:29AM 10.9420 -79.3880 182° South 452 520 35,000  Level FlightAware
04:29AM 10.8700 -79.3930 184° South 451 519 35,000  Level FlightAware
04:30AM 10.7960 -79.3960 182° South 449 517 35,000  Level FlightAware
04:31AM 10.7240 -79.4000 183° South 448 516 35,000  Level FlightAware
04:31AM 10.6500 -79.4030 182° South 447 514 35,000  Level FlightAware
04:32AM 10.5770 -79.4070 183° South 447 514 35,000  Level FlightAware
04:32AM 10.5030 -79.4100 182° South 447 514 35,000  Level FlightAware
04:33AM 10.4400 -79.4130 183° South 447 514 35,000  Level FlightAware
04:33AM 10.3670 -79.4170 183° South 447 514 35,000  Level FlightAware
04:34AM 10.2820 -79.4210 183° South 447 514 35,000  Level FlightAware
04:35AM 10.2200 -79.4240 183° South 447 514 35,000  Level FlightAware
04:35AM 10.1460 -79.4280 183° South 438 504 35,000  Level FlightAware
04:36AM 10.0720 -79.4310 182° South 438 504 35,000  Level FlightAware
04:36AM 10.0000 -79.4350 183° South 438 504 35,000  Level FlightAware
04:37AM 9.9250 -79.4380 182° South 438 504 35,000  Level FlightAware
04:38AM 9.8540 -79.4420 183° South 438 504 35,000  Level FlightAware
04:38AM 9.7810 -79.4450 182° South 438 504 35,000  Level FlightAware
04:39AM 9.7090 -79.4490 183° South 438 504 35,000  Level FlightAware
04:39AM 9.6360 -79.4520 182° South 438 504 35,000  Level FlightAware
04:40AM 9.5540 -79.4560 183° South 438 504 35,000  Level FlightAware
04:41AM 9.4700 -79.4600 183° South 437 503 35,000  Level FlightAware
04:41AM 9.4100 -79.4630 183° South 437 503 35,000  Level FlightAware
04:42AM 9.3300 -79.4670 183° South 436 502 35,000  Level FlightAware
04:42AM 9.2640 -79.4700 183° South 437 503 35,000  Level FlightAware
04:43AM 9.2010 -79.4730 183° South 437 503 35,000  Level FlightAware
04:44AM 9.1170 -79.4780 183° South 437 503 35,000  Level FlightAware
04:44AM 9.0460 -79.4810 182° South 438 504 35,000  Level FlightAware
04:45AM 8.9320 -79.4870 183° South 438 504 35,000  Level FlightAware
04:46AM 8.9340 -79.4860 26° Northeast 445 512 35,000  Level FlightAware
04:46AM 8.8450 -79.4910 183° South 446 513 35,000  Level FlightAware
04:47AM 8.7630 -79.4950 183° South 445 512 35,000  Level FlightAware
04:47AM 8.7000 -79.4980 183° South 445 512 35,000  Level FlightAware
04:48AM 8.6170 -79.5020 183° South 445 512 35,000  Level FlightAware
04:49AM 8.5510 -79.5050 183° South 445 512 35,000  Level FlightAware
04:49AM 8.5070 -79.5070 183° South 445 512 35,000  Level FlightAware
04:50AM 8.4380 -79.5090 182° South 445 512 35,000  Level FlightAware
04:50AM 8.3750 -79.5120 183° South 445 512 35,000  Level FlightAware
04:51AM 8.3120 -79.5140 182° South 445 512 35,000  Level FlightAware
04:51AM 8.2490 -79.5160 182° South 445 512 35,000  Level FlightAware
04:52AM 8.1870 -79.5180 182° South 445 512 35,000  Level FlightAware
04:53AM 8.1240 -79.5200 182° South 445 512 35,000  Level FlightAware
04:53AM 8.0590 -79.5230 183° South 445 512 35,000  Level FlightAware
04:54AM 7.9960 -79.5250 182° South 445 512 35,000  Level FlightAware
04:55AM 7.9310 -79.5270 182° South 445 512 35,000  Level FlightAware
04:55AM 7.8680 -79.5290 182° South 445 512 35,000  Level FlightAware
04:56AM 7.8050 -79.5320 183° South 445 512 35,000  Level FlightAware
04:56AM 7.7420 -79.5340 182° South 445 512 35,000  Level FlightAware
04:57AM 7.6790 -79.5360 182° South 445 512 35,000  Level FlightAware
04:58AM 7.6150 -79.5380 182° South 445 512 35,000  Level FlightAware
04:58AM 7.5500 -79.5400 182° South 445 512 35,000  Level FlightAware
04:59AM 7.4870 -79.5430 183° South 445 512 35,000  Level FlightAware
05:01AM 7.2662 -79.5665 186° South  Level FlightAware Approximate
05:02AM 7.1412 -79.5797 186° South  Level FlightAware Approximate
05:03AM 7.0162 -79.5930 186° South  Level FlightAware Approximate
05:04AM 6.8893 -79.6023 182° South  Level FlightAware Approximate
05:05AM 6.7637 -79.6070 182° South  Level FlightAware Approximate
05:06AM 6.6381 -79.6117 182° South  Level FlightAware Approximate
05:07AM 6.5125 -79.6164 182° South  Level FlightAware Approximate
05:08AM 6.3869 -79.6211 182° South  Level FlightAware Approximate
05:09AM 6.2613 -79.6258 182° South  Level FlightAware Approximate
05:10AM 6.1357 -79.6305 182° South  Level FlightAware Approximate
05:11AM 6.0101 -79.6352 182° South  Level FlightAware Approximate
05:12AM 5.8845 -79.6399 182° South  Level FlightAware Approximate
05:13AM 5.7589 -79.6446 182° South  Level FlightAware Approximate
05:14AM 5.6333 -79.6493 182° South  Level FlightAware Approximate
05:15AM 5.5077 -79.6540 182° South  Level FlightAware Approximate
05:16AM 5.3821 -79.6586 182° South  Level FlightAware Approximate
05:17AM 5.2565 -79.6633 182° South  Level FlightAware Approximate
05:18AM 5.1312 -79.6619 172° South  Level FlightAware Approximate
05:19AM 5.0066 -79.6450 172° South  Level FlightAware Approximate
05:20AM 4.8820 -79.6282 172° South  Level FlightAware Approximate
05:21AM 4.7575 -79.6114 172° South  Level FlightAware Approximate
05:22AM 4.6329 -79.5946 172° South  Level FlightAware Approximate
05:23AM 4.5083 -79.5778 172° South  Level FlightAware Approximate
05:24AM 4.3837 -79.5610 172° South  Level FlightAware Approximate
05:25AM 4.2592 -79.5442 172° South  Level FlightAware Approximate
05:26AM 4.1346 -79.5274 172° South  Level FlightAware Approximate
05:27AM 4.0100 -79.5107 172° South  Level FlightAware Approximate
05:28AM 3.8855 -79.4939 172° South  Level FlightAware Approximate
05:29AM 3.7609 -79.4771 172° South  Level FlightAware Approximate
05:30AM 3.6363 -79.4607 173° South  Level FlightAware Approximate
05:31AM 3.5116 -79.4450 173° South  Level FlightAware Approximate
05:32AM 3.3869 -79.4293 173° South  Level FlightAware Approximate
05:33AM 3.2621 -79.4136 173° South  Level FlightAware Approximate
05:34AM 3.1374 -79.3979 173° South  Level FlightAware Approximate
05:35AM 3.0127 -79.3822 173° South  Level FlightAware Approximate
05:36AM 2.8880 -79.3665 173° South  Level FlightAware Approximate
05:37AM 2.7633 -79.3508 173° South  Level FlightAware Approximate
05:38AM 2.6386 -79.3351 173° South  Level FlightAware Approximate
05:39AM 2.5139 -79.3194 173° South  Level FlightAware Approximate
05:40AM 2.3892 -79.3037 173° South  Level FlightAware Approximate
05:41AM 2.2645 -79.2880 173° South  Level FlightAware Approximate
05:42AM 2.1398 -79.2723 173° South  Level FlightAware Approximate
05:43AM 2.0150 -79.2567 173° South  Level FlightAware Approximate
05:44AM 1.8903 -79.2410 173° South  Level FlightAware Approximate
05:45AM 1.7656 -79.2253 173° South  Level FlightAware Approximate
05:46AM 1.6409 -79.2096 173° South  Level FlightAware Approximate
05:47AM 1.5162 -79.1939 173° South  Level FlightAware Approximate
05:48AM 1.3915 -79.1783 173° South  Level FlightAware Approximate
05:49AM 1.2668 -79.1626 173° South  Level FlightAware Approximate
05:50AM 1.1421 -79.1469 173° South  Level FlightAware Approximate
05:51AM 1.0174 -79.1313 173° South  Level FlightAware Approximate
05:52AM 0.8927 -79.1156 173° South  Level FlightAware Approximate
05:53AM 0.7679 -79.1000 173° South  Level FlightAware Approximate
05:54AM 0.6432 -79.0843 173° South  Level FlightAware Approximate
05:54AM 0.1720 -79.8450 173° South 457 526 35,000  Level FlightAware
05:54AM 0.0860 -79.8460 181° South 456 525 35,000  Level FlightAware
05:55AM 0.5185 -79.0686 173° South  Level FlightAware Approximate
05:55AM 0.0140 -79.8460 180° South 455 524 35,000  Level FlightAware
05:56AM -0.0780 -79.8470 181° South 454 522 35,000  Level FlightAware
05:56AM -0.1510 -79.8480 181° South 453 521 35,000  Level FlightAware
05:57AM -0.2240 -79.8490 181° South 451 519 35,000  Level FlightAware
05:57AM -0.2980 -79.8490 180° South 450 518 35,000  Level FlightAware
05:58AM -0.3700 -79.8500 181° South 448 516 35,000  Level FlightAware
05:59AM -0.4420 -79.8510 181° South 447 514 35,000  Level FlightAware
05:59AM -0.5140 -79.8520 181° South 447 514 35,000  Level FlightAware
06:00AM -0.5880 -79.8520 180° South 446 513 35,000  Level FlightAware
06:00AM -0.6540 -79.8530 181° South 446 513 35,000  Level FlightAware
06:01AM -0.7330 -79.8540 181° South 445 512 35,000  Level FlightAware
06:02AM -0.8040 -79.8540 180° South 445 512 35,000  Level FlightAware
06:02AM -0.8770 -79.8550 181° South 444 511 35,000  Level FlightAware
06:03AM -0.9500 -79.8560 181° South 445 512 35,000  Level FlightAware
06:03AM -1.0220 -79.8560 180° South 445 512 35,000  Level FlightAware
06:04AM -1.0940 -79.8570 181° South 444 511 35,000  Level FlightAware
06:04AM -1.1660 -79.8580 181° South 444 511 35,000  Level FlightAware
06:05AM -1.2380 -79.8580 180° South 444 511 35,000  Level FlightAware
06:06AM -1.3110 -79.8590 181° South 444 511 35,000  Level FlightAware
06:06AM -1.3830 -79.8600 181° South 445 512 35,000  Level FlightAware
06:07AM -1.4570 -79.8600 180° South 444 511 35,000  Level FlightAware
06:07AM -1.5270 -79.8610 181° South 444 511 35,000  Level FlightAware
06:08AM -1.5990 -79.8620 181° South 444 511 35,000  Level FlightAware
06:09AM -1.6720 -79.8620 180° South 445 512 35,000  Level FlightAware
06:09AM -1.7430 -79.8630 181° South 445 512 35,000  Level FlightAware
06:10AM -1.8390 -79.8640 181° South 445 512 35,000  Level FlightAware
06:11AM -1.9210 -79.8650 181° South 446 513 35,000  Level FlightAware
06:11AM -2.0030 -79.8660 181° South 446 513 35,000  Level FlightAware
06:12AM -2.0830 -79.8660 180° South 447 514 35,000  Level FlightAware
06:12AM -2.1470 -79.8640 178° South 448 516 35,000  Level FlightAware
06:13AM -2.2400 -79.8530 173° South 449 517 35,000  Level FlightAware
06:14AM -2.3200 -79.8430 173° South 449 517 35,000  Level FlightAware
06:14AM -2.3940 -79.8330 172° South 449 517 35,000  Level FlightAware
06:15AM -2.4480 -79.8260 173° South 449 517 35,000  Level FlightAware
06:16AM -2.5550 -79.8130 173° South 449 517 35,000  Level FlightAware
06:16AM -2.6280 -79.8030 172° South 449 517 35,000  Level FlightAware
06:17AM -2.6990 -79.7950 174° South 449 517 35,000  Level FlightAware
06:17AM -2.7730 -79.7850 172° South 449 517 35,000  Level FlightAware
06:18AM -2.8450 -79.7760 173° South 449 517 35,000  Level FlightAware
06:19AM -2.9170 -79.7670 173° South 449 517 35,000  Level FlightAware
06:19AM -2.9890 -79.7580 173° South 449 517 35,000  Level FlightAware
06:20AM -3.0720 -79.7470 172° South 449 517 35,000  Level FlightAware
06:20AM -3.1450 -79.7380 173° South 449 517 35,000  Level FlightAware
06:21AM -3.2260 -79.7280 173° South 449 517 35,000  Level FlightAware
06:22AM -3.2880 -79.7200 173° South 449 517 35,000  Level FlightAware
06:22AM -3.3720 -79.7100 173° South 448 516 35,000  Level FlightAware
06:23AM -3.4430 -79.7010 173° South 448 516 35,000  Level FlightAware
06:23AM -3.5070 -79.6920 172° South 448 516 35,000  Level FlightAware
06:24AM -3.5810 -79.6830 173° South 448 516 35,000  Level FlightAware
06:25AM -3.6490 -79.6750 173° South 447 514 35,000  Level FlightAware
06:25AM -3.7130 -79.6660 172° South 448 516 35,000  Level FlightAware
06:26AM -3.7870 -79.6570 173° South 447 514 35,000  Level FlightAware
06:26AM -3.8710 -79.6470 173° South 447 514 35,000  Level FlightAware
06:27AM -3.9340 -79.6390 173° South 447 514 35,000  Level FlightAware
06:28AM -4.0210 -79.6280 173° South 447 514 35,000  Level FlightAware
06:28AM -4.0770 -79.6210 173° South 447 514 35,000  Level FlightAware
06:29AM -4.1400 -79.6130 173° South 447 514 35,000  Level FlightAware
06:29AM -4.2460 -79.5990 172° South 446 513 35,000  Level FlightAware
06:30AM -4.3090 -79.5920 174° South 446 513 35,000  Level FlightAware
06:31AM -4.3710 -79.5840 173° South 446 513 35,000  Level FlightAware
06:31AM -4.4340 -79.5760 173° South 446 513 35,000  Level FlightAware
06:32AM -4.4970 -79.5680 173° South 446 513 35,000  Level FlightAware
06:32AM -4.5610 -79.5600 173° South 446 513 35,000  Level FlightAware
06:33AM -4.6240 -79.5530 174° South 446 513 35,000  Level FlightAware
06:34AM -4.6860 -79.5450 173° South 446 513 35,000  Level FlightAware
06:34AM -4.7490 -79.5370 173° South 446 513 35,000  Level FlightAware
06:35AM -4.8120 -79.5300 174° South 446 513 35,000  Level FlightAware
06:35AM -4.8740 -79.5220 173° South 446 513 35,000  Level FlightAware
06:36AM -4.9370 -79.5140 173° South 446 513 35,000  Level FlightAware
06:37AM -5.0000 -79.5060 173° South 446 513 35,000  Level FlightAware
06:37AM -5.0620 -79.4990 174° South 446 513 35,000  Level FlightAware
06:38AM -5.1250 -79.4910 173° South 446 513 35,000  Level FlightAware
06:38AM -5.1900 -79.4830 173° South 446 513 35,000 -540 Level FlightAware
06:41AM -5.4320 -79.4005 161° South  Level Estimated
06:42AM -5.5510 -79.3598 161° South  Level Estimated
06:43AM -5.6700 -79.3192 161° South  Level Estimated
06:44AM -5.7890 -79.2785 161° South  Level Estimated
06:45AM -5.9080 -79.2379 161° South  Level Estimated
06:46AM -6.0270 -79.1972 161° South  Level Estimated
06:47AM -6.1460 -79.1565 161° South  Level Estimated
06:48AM -6.2650 -79.1157 161° South  Level Estimated
06:49AM -6.3840 -79.0750 161° South  Level Estimated
06:50AM -6.5030 -79.0342 161° South  Level Estimated
06:51AM -6.6220 -78.9934 161° South  Level Estimated
06:52AM -6.7409 -78.9526 161° South  Level Estimated
06:53AM -6.8599 -78.9118 161° South  Level Estimated
06:54AM -6.9789 -78.8710 161° South  Level Estimated
06:55AM -7.0978 -78.8301 161° South  Level Estimated
06:56AM -7.2168 -78.7892 161° South  Level Estimated
06:57AM -7.3358 -78.7483 161° South  Level Estimated
06:58AM -7.4547 -78.7074 161° South  Level Estimated
06:59AM -7.5737 -78.6664 161° South  Level Estimated
07:00AM -7.6926 -78.6255 161° South  Level Estimated
07:01AM -7.8116 -78.5844 161° South  Level Estimated
07:02AM -7.9305 -78.5434 161° South  Level Estimated
07:03AM -8.0495 -78.5024 161° South  Level Estimated
07:04AM -8.1684 -78.4613 161° South  Level Estimated
07:05AM -8.2873 -78.4202 161° South  Level Estimated
07:06AM -8.4062 -78.3791 161° South  Level Estimated
07:07AM -8.5252 -78.3380 161° South  Level Estimated
07:08AM -8.6441 -78.2968 161° South  Level Estimated
07:09AM -8.7630 -78.2556 161° South  Level Estimated
07:10AM -8.8819 -78.2144 161° South  Level Estimated
07:11AM -9.0008 -78.1731 161° South  Level Estimated
07:12AM -9.1197 -78.1318 161° South  Level Estimated
07:13AM -9.2386 -78.0905 161° South  Level Estimated
07:14AM -9.3575 -78.0492 161° South  Level Estimated
07:15AM -9.4764 -78.0079 161° South  Level Estimated
07:16AM -9.5953 -77.9665 161° South  Level Estimated
07:17AM -9.7141 -77.9250 161° South  Level Estimated
07:18AM -9.8330 -77.8836 161° South  Level Estimated
07:19AM -9.9519 -77.8421 161° South  Level Estimated
07:20AM -10.0707 -77.8006 161° South  Level Estimated
07:21AM -10.1896 -77.7591 161° South  Level Estimated
07:22AM -10.3084 -77.7175 161° South  Level Estimated
07:23AM -10.4273 -77.6759 161° South  Level Estimated
07:24AM -10.5461 -77.6343 161° South  Level Estimated
07:25AM -10.6649 -77.5926 161° South  Level Estimated
07:26AM -10.7838 -77.5509 161° South  Level Estimated
07:27AM -10.9026 -77.5092 161° South  Level Estimated
07:28AM -11.0214 -77.4674 161° South  Level Estimated
07:29AM -11.1402 -77.4256 161° South  Level Estimated
07:30AM -11.2590 -77.3838 161° South  Level Estimated
07:31AM -11.3778 -77.3419 161° South  Level Estimated
07:32AM -11.4966 -77.3000 161° South  Level Estimated
07:33AM -11.6154 -77.2581 161° South  Level Estimated
07:34AM -11.7342 -77.2161 161° South  Level Estimated
07:34AM -11.5130 -77.3650 161° South 271 312 7,700  Level FlightAware
07:34AM -11.5400 -77.3510 153° Southeast 271 312 7,700  Level FlightAware
07:37AM -11.8156 -77.2187 117° Southeast  Level FlightAware Approximate
07:38AM -11.9238 -77.1572 144° Southeast  Level FlightAware Approximate
07:39AM -12.0167 -77.1167 159° South  Level FlightAware Approximate
07:40AM -12.0219 -77.1143 159° South  Level Estimated
07:41AM -12.0167 -77.1167 159° South  Level FlightAware Approximate
07:42AM -12.0219 -77.1143 159° South  Level Estimated
07:43AM -12.0167 -77.1167 159° South  Level FlightAware Approximate
07:44AM -12.0219 -77.1143 159° South  Level Estimated
07:45AM -12.0167 -77.1167 159° South  Level FlightAware Approximate
07:46AM -12.0219 -77.1143 159° South  Level Estimated
07:47AM -12.0167 -77.1167 159° South  Level FlightAware Approximate
07:48AM -12.0219 -77.1143 159° South  Level Estimated
07:49AM -12.0167 -77.1167 159° South  Level FlightAware Approximate